Time;durP1;ratioP1;P1;durP2;ratioP2;P2;SDS_P1;SDS_P2;PMS_P1;PMS_P2;Temp;Humidity;BMP_temperature;BMP_pressure;BME280_temperature;BME280_humidity;BME280_pressure;Samples;Min_cycle;Max_cycle;Signal;HPM_P1;HPM_P2
2021/05/22 04:10:32;;;;;;;0.40;0.40;;;14.80;99.90;;;;;;5916993;23;21441;-77
2021/05/22 04:13:00;;;;;;;0.40;0.40;;;14.70;96.10;;;;;;4992400;28;20234;-76
2021/05/22 04:15:27;;;;;;;0.40;0.40;;;14.70;96.10;;;;;;4992542;28;20208;-76
2021/05/22 04:17:54;;;;;;;0.60;0.60;;;14.80;96.00;;;;;;4992675;28;20250;-76
2021/05/22 04:20:22;;;;;;;0.40;0.40;;;14.90;99.90;;;;;;4991201;28;20247;-76
2021/05/22 04:22:50;;;;;;;0.40;0.40;;;15.00;96.00;;;;;;4973247;28;20228;-75
2021/05/22 04:25:17;;;;;;;0.50;0.50;;;15.00;95.90;;;;;;4975092;28;20205;-75
2021/05/22 04:27:45;;;;;;;0.40;0.40;;;15.20;95.90;;;;;;4973013;28;20692;-75
2021/05/22 04:30:13;;;;;;;0.40;0.40;;;15.20;99.90;;;;;;4973048;28;20204;-75
2021/05/22 04:32:41;;;;;;;0.40;0.40;;;15.30;95.80;;;;;;4969831;28;20263;-76
2021/05/22 04:35:10;;;;;;;0.60;0.60;;;15.30;95.70;;;;;;4953953;28;20201;-75
2021/05/22 04:37:37;;;;;;;0.50;0.50;;;15.30;95.90;;;;;;4953654;29;20232;-76
2021/05/22 04:40:06;;;;;;;0.40;0.40;;;15.30;95.20;;;;;;4953798;29;20201;-76
2021/05/22 04:42:33;;;;;;;0.40;0.40;;;15.20;95.10;;;;;;4953430;28;20280;-75
2021/05/22 04:45:02;;;;;;;0.50;0.50;;;15.30;95.30;;;;;;4953402;28;20206;-75
2021/05/22 04:47:29;;;;;;;0.60;0.60;;;15.30;95.60;;;;;;4953308;29;20216;-75
2021/05/22 04:49:57;;;;;;;0.40;0.40;;;15.10;95.20;;;;;;4953335;29;20208;-75
2021/05/22 04:52:24;;;;;;;0.43;0.43;;;15.20;95.30;;;;;;4953167;29;20717;-75
2021/05/22 04:54:52;;;;;;;0.40;0.40;;;15.30;95.50;;;;;;4953532;29;20216;-75
2021/05/22 04:57:20;;;;;;;0.60;0.60;;;15.30;95.10;;;;;;4953267;29;20279;-76
2021/05/22 04:59:47;;;;;;;0.40;0.40;;;15.20;95.20;;;;;;4953562;29;20209;-76
2021/05/22 05:02:15;;;;;;;0.50;0.50;;;15.30;95.50;;;;;;4952892;29;20749;-76
2021/05/22 05:04:43;;;;;;;0.40;0.40;;;15.30;95.20;;;;;;4953315;28;20205;-76
2021/05/22 05:07:10;;;;;;;0.40;0.40;;;15.30;95.40;;;;;;4956657;29;20240;-75
2021/05/22 05:09:39;;;;;;;0.50;0.50;;;15.20;94.60;;;;;;4956792;29;20209;-75
2021/05/22 05:12:07;;;;;;;0.50;0.50;;;15.30;94.80;;;;;;4956313;29;20777;-75
2021/05/22 05:14:35;;;;;;;0.40;0.40;;;15.50;94.90;;;;;;4956785;29;20213;-75
2021/05/22 05:17:02;;;;;;;0.50;0.50;;;15.60;95.00;;;;;;4956269;29;20205;-75
2021/05/22 05:19:31;;;;;;;0.40;0.40;;;15.70;94.50;;;;;;4956545;29;20215;-75
2021/05/22 05:21:59;;;;;;;0.50;0.50;;;15.60;94.20;;;;;;4956962;29;20694;-76
2021/05/22 05:24:27;;;;;;;0.50;0.50;;;15.50;94.10;;;;;;4956425;29;20209;-75
2021/05/22 05:26:55;;;;;;;0.50;0.50;;;15.40;93.40;;;;;;4956250;29;20265;-75
2021/05/22 05:29:22;;;;;;;0.50;0.50;;;15.40;93.70;;;;;;4956363;28;20209;-74
2021/05/22 05:31:49;;;;;;;0.50;0.50;;;15.20;93.70;;;;;;4955953;29;20232;-75
2021/05/22 05:34:17;;;;;;;0.50;0.50;;;15.20;94.00;;;;;;4956455;28;20205;-74
2021/05/22 05:36:45;;;;;;;0.40;0.40;;;15.10;94.00;;;;;;4956286;29;20213;-74
2021/05/22 05:39:13;;;;;;;0.50;0.50;;;15.00;94.50;;;;;;4954716;29;20801;-75
2021/05/22 05:41:41;;;;;;;0.60;0.60;;;14.90;94.20;;;;;;4955218;29;20229;-78
2021/05/22 05:44:09;;;;;;;0.60;0.60;;;15.40;95.00;;;;;;4955601;29;20694;-77
2021/05/22 05:46:36;;;;;;;0.50;0.50;;;14.70;95.10;;;;;;4956257;28;20260;-77
2021/05/22 05:49:04;;;;;;;0.50;0.50;;;14.60;95.50;;;;;;4956741;29;20209;-77
2021/05/22 05:51:31;;;;;;;0.50;0.50;;;14.00;99.90;;;;;;4956359;29;20225;-78
2021/05/22 05:53:59;;;;;;;0.60;0.60;;;14.10;99.30;;;;;;4956106;28;20233;-77
2021/05/22 05:56:27;;;;;;;0.60;0.60;;;13.50;99.90;;;;;;4955746;29;20635;-77
2021/05/22 05:58:54;;;;;;;0.60;0.60;;;13.10;99.90;;;;;;4956504;29;20253;-78
2021/05/22 06:01:21;;;;;;;0.70;0.70;;;12.80;99.90;;;;;;4956457;29;20229;-77
2021/05/22 06:03:49;;;;;;;0.65;0.65;;;12.80;99.90;;;;;;4961181;28;20256;-78
2021/05/22 06:06:16;;;;;;;0.70;0.70;;;12.70;99.90;;;;;;4959198;28;20657;-78
2021/05/22 06:08:43;;;;;;;0.63;0.63;;;12.60;99.90;;;;;;4966642;28;20283;-74
2021/05/22 06:11:14;;;;;;;0.60;0.60;;;12.70;99.90;;;;;;4975225;28;20233;-75
2021/05/22 06:13:42;;;;;;;0.60;0.60;;;12.60;99.90;;;;;;4975233;28;20208;-75
2021/05/22 06:16:19;;;;;;;0.70;0.70;;;12.70;99.90;;;;;;4976279;28;20248;-76
2021/05/22 06:18:46;;;;;;;0.77;0.77;;;12.70;99.90;;;;;;4974683;28;20744;-76
2021/05/22 06:21:15;;;;;;;0.60;0.60;;;12.70;99.90;;;;;;4976313;28;20291;-76
2021/05/22 06:23:42;;;;;;;0.70;0.70;;;12.70;99.90;;;;;;4975448;28;20310;-76
2021/05/22 06:26:10;;;;;;;0.70;0.70;;;12.90;99.90;;;;;;4972589;28;20349;-76
2021/05/22 06:28:38;;;;;;;0.70;0.70;;;12.90;99.90;;;;;;4967764;28;20205;-78
2021/05/22 06:31:06;;;;;;;0.60;0.60;;;12.90;99.90;;;;;;4972075;28;20220;-78
2021/05/22 06:33:33;;;;;;;0.60;0.60;;;12.90;99.90;;;;;;4965663;28;20658;-77
2021/05/22 06:36:01;;;;;;;0.70;0.70;;;12.80;99.90;;;;;;4965042;28;20705;-78
2021/05/22 06:38:28;;;;;;;0.70;0.70;;;12.90;99.90;;;;;;4963743;28;20236;-77
2021/05/22 06:40:56;;;;;;;0.60;0.60;;;13.00;99.90;;;;;;4959322;28;20732;-76
2021/05/22 06:43:23;;;;;;;0.70;0.70;;;13.20;99.90;;;;;;4971046;28;20220;-77
2021/05/22 06:45:59;;;;;;;0.50;0.50;;;13.40;99.90;;;;;;4963127;28;20253;-75
2021/05/22 06:48:27;;;;;;;0.60;0.60;;;13.60;99.90;;;;;;4964847;28;20201;-75
2021/05/22 06:50:56;;;;;;;0.60;0.60;;;13.70;99.90;;;;;;4964258;28;20244;-75
2021/05/22 06:53:23;;;;;;;0.60;0.60;;;13.80;99.90;;;;;;4963817;28;20207;-75
2021/05/22 06:55:51;;;;;;;0.60;0.60;;;13.90;99.90;;;;;;4963027;28;20666;-76
2021/05/22 06:58:18;;;;;;;0.60;0.60;;;14.00;99.90;;;;;;4961574;28;20745;-77
2021/05/22 07:00:46;;;;;;;0.60;0.60;;;14.10;99.90;;;;;;4967915;28;20783;-78
2021/05/22 07:03:14;;;;;;;0.60;0.60;;;14.10;99.90;;;;;;4972125;28;20279;-76
2021/05/22 07:05:42;;;;;;;0.50;0.50;;;14.20;99.90;;;;;;4967154;28;20679;-79
2021/05/22 07:08:09;;;;;;;0.60;0.60;;;14.30;99.90;;;;;;4968915;28;20564;-78
2021/05/22 07:10:37;;;;;;;0.60;0.60;;;14.60;99.90;;;;;;4968286;28;20244;-75
2021/05/22 07:13:05;;;;;;;0.55;0.55;;;14.60;99.90;;;;;;4967546;28;20192;-75
2021/05/22 07:15:33;;;;;;;0.60;0.60;;;14.70;99.00;;;;;;4970202;28;20687;-76
2021/05/22 07:18:01;;;;;;;0.60;0.60;;;14.60;97.80;;;;;;4977903;28;20222;-78
2021/05/22 07:20:30;;;;;;;0.60;0.60;;;17.70;99.90;;;;;;4977571;28;20212;-79
2021/05/22 07:22:57;;;;;;;0.50;0.50;;;14.90;97.70;;;;;;4974196;28;20283;-77
2021/05/22 07:25:26;;;;;;;0.50;0.50;;;14.80;96.50;;;;;;4966156;28;20196;-78
2021/05/22 07:27:54;;;;;;;0.50;0.50;;;14.80;96.60;;;;;;4977011;28;20188;-76
2021/05/22 07:30:23;;;;;;;0.60;0.60;;;14.80;99.90;;;;;;4975491;28;20244;-78
2021/05/22 07:32:50;;;;;;;0.60;0.60;;;14.70;95.80;;;;;;4975443;28;20240;-78
2021/05/22 07:35:17;;;;;;;0.60;0.60;;;14.70;95.30;;;;;;4974234;28;20259;-76
2021/05/22 07:37:45;;;;;;;0.70;0.70;;;14.80;95.30;;;;;;4970267;28;20243;-77
2021/05/22 07:40:14;;;;;;;0.50;0.50;;;14.90;99.90;;;;;;4970634;28;20197;-77
2021/05/22 07:42:47;;;;;;;0.60;0.60;;;14.60;94.00;;;;;;4953287;29;20222;-77
2021/05/22 07:45:15;;;;;;;0.60;0.60;;;14.70;94.50;;;;;;4953059;29;20236;-78
2021/05/22 07:47:42;;;;;;;0.50;0.50;;;14.70;93.60;;;;;;4954250;29;20205;-77
2021/05/22 07:50:10;;;;;;;0.60;0.60;;;14.70;92.80;;;;;;4954959;28;20201;-77
2021/05/22 07:52:40;;;;;;;0.60;0.60;;;14.70;93.20;;;;;;4955436;29;20206;-77
2021/05/22 07:55:10;;;;;;;0.60;0.60;;;14.80;92.40;;;;;;4957868;28;20205;-77
2021/05/22 07:57:38;;;;;;;0.60;0.60;;;14.90;92.70;;;;;;4956889;29;20318;-77
2021/05/22 08:00:06;;;;;;;0.60;0.60;;;15.00;92.20;;;;;;4956677;29;20209;-77
2021/05/22 08:02:33;;;;;;;0.60;0.60;;;15.00;91.80;;;;;;4953416;29;20252;-78
2021/05/22 08:05:01;;;;;;;0.60;0.60;;;14.80;92.70;;;;;;4954398;29;20208;-77
2021/05/22 08:07:29;;;;;;;0.50;0.50;;;14.90;92.00;;;;;;4954640;29;20217;-76
2021/05/22 08:09:56;;;;;;;0.60;0.60;;;15.00;92.30;;;;;;4955434;29;20205;-77
2021/05/22 08:12:25;;;;;;;0.60;0.60;;;15.20;92.20;;;;;;4955005;29;20267;-77
2021/05/22 08:14:53;;;;;;;0.60;0.60;;;15.50;91.10;;;;;;4954231;29;20205;-78
2021/05/22 08:17:20;;;;;;;0.50;0.50;;;15.50;90.40;;;;;;4953979;29;20252;-78
2021/05/22 08:19:47;;;;;;;0.50;0.50;;;15.80;90.80;;;;;;4953937;29;20213;-78
2021/05/22 08:22:20;;;;;;;0.40;0.40;;;16.00;90.90;;;;;;4953733;29;20233;-79
2021/05/22 08:24:48;;;;;;;0.50;0.50;;;16.00;90.60;;;;;;4954719;29;20201;-78
2021/05/22 08:27:18;;;;;;;0.40;0.40;;;16.00;90.30;;;;;;4953969;29;20260;-78
2021/05/22 08:29:56;;;;;;;0.40;0.40;;;16.00;90.50;;;;;;4954213;29;20733;-78
2021/05/22 08:32:23;;;;;;;0.50;0.50;;;15.80;90.30;;;;;;4954305;29;20259;-78
2021/05/22 08:34:52;;;;;;;0.50;0.50;;;15.90;90.10;;;;;;4954147;29;20201;-78
2021/05/22 08:37:20;;;;;;;0.50;0.50;;;16.10;90.20;;;;;;4954373;29;20280;-77
2021/05/22 08:39:48;;;;;;;0.55;0.55;;;16.30;97.70;;;;;;4954954;28;20205;-77
2021/05/22 08:42:19;;;;;;;0.50;0.50;;;16.30;90.00;;;;;;4958552;29;20574;-77
2021/05/22 08:44:46;;;;;;;0.50;0.50;;;16.30;88.40;;;;;;4965185;28;20698;-76
2021/05/22 08:47:15;;;;;;;0.50;0.50;;;16.00;87.40;;;;;;4976624;28;20205;-78
2021/05/22 08:49:43;;;;;;;0.40;0.40;;;15.80;88.40;;;;;;4976596;28;20267;-78
2021/05/22 08:52:11;;;;;;;0.50;0.50;;;15.90;88.50;;;;;;4976496;28;20299;-77
2021/05/22 08:54:39;;;;;;;0.45;0.45;;;16.10;87.50;;;;;;4976746;28;20263;-77
2021/05/22 08:57:08;;;;;;;0.50;0.50;;;16.30;87.50;;;;;;4976666;28;20608;-79
2021/05/22 08:59:40;;;;;;;0.50;0.50;;;16.50;88.20;;;;;;4973582;28;20201;-79
2021/05/22 09:02:08;;;;;;;0.60;0.60;;;16.60;89.10;;;;;;4973279;28;20217;-78
2021/05/22 09:05:12;;;;;;;0.40;0.40;;;16.40;88.80;;;;;;4968105;28;20197;-78
2021/05/22 09:07:41;;;;;;;0.50;0.50;;;16.40;85.70;;;;;;4964942;28;20224;-78
2021/05/22 09:10:12;;;;;;;0.50;0.50;;;16.40;84.70;;;;;;4969012;28;20201;-77
2021/05/22 09:12:41;;;;;;;0.40;0.40;;;16.50;82.00;;;;;;4957143;29;20232;-77
2021/05/22 09:15:13;;;;;;;0.40;0.40;;;16.60;83.00;;;;;;4956857;29;20272;-78
2021/05/22 09:17:50;;;;;;;0.50;0.50;;;16.50;79.40;;;;;;4956882;29;20244;-77
2021/05/22 09:20:24;;;;;;;0.40;0.40;;;16.20;94.90;;;;;;4956709;29;20232;-78
2021/05/22 09:22:59;;;;;;;0.40;0.40;;;16.20;83.30;;;;;;4974957;28;20631;-78
2021/05/22 09:25:27;;;;;;;0.50;0.50;;;16.20;83.50;;;;;;4973654;28;20209;-78
2021/05/22 09:27:55;;;;;;;0.50;0.50;;;16.00;83.10;;;;;;4976296;28;20236;-78
2021/05/22 09:30:24;;;;;;;0.55;0.55;;;16.40;94.60;;;;;;4975839;28;20232;-79
2021/05/22 09:32:53;;;;;;;0.40;0.40;;;16.30;82.70;;;;;;4973697;28;20225;-76
2021/05/22 09:35:24;;;;;;;0.60;0.60;;;16.30;82.00;;;;;;4971977;28;20619;-77
2021/05/22 09:37:53;;;;;;;0.50;0.50;;;16.40;81.80;;;;;;4975780;28;20201;-77
2021/05/22 09:40:23;;;;;;;0.50;0.50;;;16.30;94.00;;;;;;4985605;28;20205;-78
2021/05/22 09:42:51;;;;;;;0.40;0.40;;;16.20;80.50;;;;;;4965092;29;20217;-77
2021/05/22 09:45:26;;;;;;;0.50;0.50;;;16.20;81.60;;;;;;4964076;29;20272;-79
2021/05/22 09:47:54;;;;;;;0.40;0.40;;;16.00;81.80;;;;;;4957241;29;20232;-78
2021/05/22 09:50:32;;;;;;;0.50;0.50;;;16.10;92.10;;;;;;4970950;28;20233;-77
2021/05/22 09:53:01;;;;;;;0.60;0.60;;;15.80;76.90;;;;;;4956119;28;20695;-77
2021/05/22 09:55:28;;;;;;;0.40;0.40;;;15.90;78.30;;;;;;4956141;29;20241;-78
2021/05/22 09:57:56;;;;;;;0.40;0.40;;;16.10;78.50;;;;;;4956447;29;20245;-78
2021/05/22 10:00:26;;;;;;;0.50;0.50;;;15.90;92.20;;;;;;4956064;28;20705;-77
2021/05/22 10:02:56;;;;;;;0.40;0.40;;;16.00;77.70;;;;;;4955968;29;20272;-78
2021/05/22 10:05:26;;;;;;;0.50;0.50;;;16.00;77.50;;;;;;4956211;28;20194;-79
2021/05/22 10:07:55;;;;;;;0.50;0.50;;;15.90;76.70;;;;;;4957170;29;20256;-79
2021/05/22 10:10:36;;;;;;;0.60;0.60;;;15.80;90.90;;;;;;4955301;28;20213;-79
2021/05/22 10:13:05;;;;;;;0.45;0.45;;;16.00;74.70;;;;;;4954724;29;20233;-78
2021/05/22 10:15:32;;;;;;;0.50;0.50;;;16.00;74.20;;;;;;4956229;29;20257;-79
2021/05/22 10:18:00;;;;;;;0.50;0.50;;;16.10;75.00;;;;;;4957319;29;20201;-79
2021/05/22 10:20:28;;;;;;;0.50;0.50;;;16.20;90.00;;;;;;4963689;28;20249;-79
2021/05/22 10:22:57;;;;;;;0.40;0.40;;;16.30;72.60;;;;;;4960092;28;20254;-78
2021/05/22 10:25:25;;;;;;;0.40;0.40;;;16.40;73.30;;;;;;4993988;23;20736;-77
2021/05/22 10:27:52;;;;;;;0.50;0.50;;;16.50;72.90;;;;;;4963768;28;20208;-77
2021/05/22 10:30:20;;;;;;;0.40;0.40;;;16.60;70.80;;;;;;4964893;28;20200;-77
2021/05/22 10:32:48;;;;;;;0.40;0.40;;;16.50;70.70;;;;;;4963537;28;20204;-77
2021/05/22 10:35:17;;;;;;;0.50;0.50;;;16.50;70.70;;;;;;4964356;28;20217;-77
2021/05/22 10:37:49;;;;;;;0.50;0.50;;;16.40;68.70;;;;;;4963373;28;20244;-77
2021/05/22 10:40:17;;;;;;;0.40;0.40;;;16.50;69.70;;;;;;4964491;28;20763;-77
2021/05/22 10:42:52;;;;;;;0.40;0.40;;;16.50;65.90;;;;;;4963615;28;20342;-75
2021/05/22 10:45:32;;;;;;;0.40;0.40;;;16.50;66.70;;;;;;4960925;28;20256;-77
2021/05/22 10:48:01;;;;;;;0.50;0.50;;;16.40;67.60;;;;;;4955097;29;20280;-78
2021/05/22 10:50:42;;;;;;;0.40;0.40;;;16.60;68.40;;;;;;4954918;29;20257;-77
2021/05/22 10:53:21;;;;;;;0.40;0.40;;;16.60;68.20;;;;;;4954774;29;20232;-76
2021/05/22 10:56:10;;;;;;;0.40;0.40;;;16.60;68.80;;;;;;4954678;29;20576;-77
2021/05/22 10:58:39;;;;;;;0.40;0.40;;;16.70;68.50;;;;;;4956250;29;20217;-77
2021/05/22 11:01:35;;;;;;;0.40;0.40;;;16.80;68.50;;;;;;4955778;28;20610;-77
2021/05/22 11:04:28;;;;;;;0.40;0.40;;;17.00;64.60;;;;;;4954877;28;20236;-77
2021/05/22 11:06:58;;;;;;;0.50;0.50;;;17.10;67.00;;;;;;4955702;28;20202;-77
2021/05/22 11:09:57;;;;;;;0.50;0.50;;;17.20;69.50;;;;;;4971025;28;20208;-76
2021/05/22 11:12:44;;;;;;;0.40;0.40;;;17.20;66.10;;;;;;4933346;29;20336;-79
2021/05/22 11:15:39;;;;;;;0.40;0.40;;;17.70;63.60;;;;;;4970265;28;20295;-72
2021/05/22 11:18:08;;;;;;;0.40;0.40;;;17.50;64.10;;;;;;4938420;28;20193;-77
2021/05/22 11:20:36;;;;;;;0.40;0.40;;;17.50;62.30;;;;;;4965419;28;20209;-77
2021/05/22 11:23:04;;;;;;;0.50;0.50;;;17.30;63.20;;;;;;4961663;28;20197;-77
2021/05/22 11:25:51;;;;;;;0.40;0.40;;;17.20;61.00;;;;;;4967252;28;20255;-78
2021/05/22 11:28:21;;;;;;;0.40;0.40;;;17.30;60.70;;;;;;4973458;28;20211;-77
2021/05/22 11:30:54;;;;;;;0.50;0.50;;;17.30;61.10;;;;;;4960265;28;20270;-77
2021/05/22 11:33:29;;;;;;;0.40;0.40;;;17.10;85.60;;;;;;4960239;28;20202;-77
2021/05/22 11:35:57;;;;;;;0.50;0.50;;;17.10;60.90;;;;;;4953694;29;20209;-76
2021/05/22 11:38:32;;;;;;;0.50;0.50;;;17.10;59.70;;;;;;4953966;29;20205;-76
2021/05/22 11:41:04;;;;;;;0.50;0.50;;;17.10;61.90;;;;;;4954200;29;20207;-77
2021/05/22 11:43:38;;;;;;;0.50;0.50;;;17.10;60.50;;;;;;4954410;28;20224;-75
2021/05/22 11:46:08;;;;;;;0.55;0.55;;;17.30;61.50;;;;;;4953964;28;20576;-76
2021/05/22 11:48:39;;;;;;;0.40;0.40;;;17.50;60.50;;;;;;4953792;29;20209;-75
2021/05/22 11:51:12;;;;;;;0.40;0.40;;;17.70;60.40;;;;;;4954097;29;20264;-75
2021/05/22 11:53:42;;;;;;;0.40;0.40;;;17.90;60.00;;;;;;4953765;28;20601;-74
2021/05/22 11:56:13;;;;;;;0.40;0.40;;;17.90;60.20;;;;;;4953898;29;20212;-75
2021/05/22 11:58:42;;;;;;;0.40;0.40;;;18.00;58.90;;;;;;4953771;28;20213;-74
2021/05/22 12:01:12;;;;;;;0.40;0.40;;;18.00;59.70;;;;;;4953819;28;20202;-73
2021/05/22 12:03:40;;;;;;;0.40;0.40;;;18.00;58.90;;;;;;4958424;28;20277;-74
2021/05/22 12:06:09;;;;;;;0.40;0.40;;;18.00;59.60;;;;;;4973084;28;20258;-76
2021/05/22 12:08:36;;;;;;;0.40;0.40;;;18.00;60.10;;;;;;4973209;28;20233;-74
2021/05/22 12:11:16;;;;;;;0.30;0.30;;;18.30;60.00;;;;;;4970140;28;20193;-74
2021/05/22 12:13:54;;;;;;;0.50;0.50;;;18.30;59.50;;;;;;4971074;28;20760;-76
2021/05/22 12:16:22;;;;;;;0.40;0.40;;;18.30;60.10;;;;;;4974032;28;20557;-75
2021/05/22 12:18:51;;;;;;;0.40;0.40;;;18.70;61.30;;;;;;4970124;28;20197;-75
2021/05/22 12:21:27;;;;;;;0.40;0.40;;;18.90;59.40;;;;;;4964557;28;20230;-76
2021/05/22 12:24:02;;;;;;;0.40;0.40;;;19.10;58.40;;;;;;4974485;28;20254;-76
2021/05/22 12:26:31;;;;;;;0.40;0.40;;;18.90;57.60;;;;;;4965382;28;20534;-76
2021/05/22 12:28:58;;;;;;;0.30;0.30;;;18.90;59.00;;;;;;4957726;28;20276;-76
2021/05/22 12:31:26;;;;;;;0.30;0.30;;;18.60;58.10;;;;;;4975137;28;20232;-77
2021/05/22 12:34:02;;;;;;;0.40;0.40;;;18.80;58.50;;;;;;4976504;28;20224;-76
2021/05/22 12:36:32;;;;;;;0.40;0.40;;;19.40;58.50;;;;;;4966072;28;20232;-76
2021/05/22 12:39:11;;;;;;;0.50;0.50;;;19.50;59.20;;;;;;4969606;28;20205;-76
2021/05/22 12:41:40;;;;;;;0.50;0.50;;;19.00;58.40;;;;;;4971662;28;20251;-76
2021/05/22 12:44:18;;;;;;;0.40;0.40;;;19.10;58.30;;;;;;4970503;28;20221;-76
2021/05/22 12:46:55;;;;;;;0.40;0.40;;;19.20;57.40;;;;;;4965187;28;20201;-77
2021/05/22 12:49:31;;;;;;;0.40;0.40;;;19.00;57.80;;;;;;4965218;28;20216;-76
2021/05/22 12:52:01;;;;;;;0.40;0.40;;;19.10;59.10;;;;;;4966005;28;20193;-76
2021/05/22 12:54:32;;;;;;;0.40;0.40;;;18.70;59.20;;;;;;4967126;28;20220;-76
2021/05/22 12:57:03;;;;;;;0.40;0.40;;;19.00;59.70;;;;;;4967342;28;20204;-76
2021/05/22 12:59:32;;;;;;;0.50;0.50;;;19.10;58.70;;;;;;4965073;28;20280;-77
2021/05/22 13:02:30;;;;;;;0.40;0.40;;;19.00;59.50;;;;;;4976222;28;20209;-76
2021/05/22 13:05:18;;;;;;;0.35;0.35;;;18.90;59.10;;;;;;4934960;29;20361;-76
2021/05/22 13:07:47;;;;;;;0.43;0.43;;;18.70;59.90;;;;;;4972867;28;20244;-76
2021/05/22 13:10:15;;;;;;;0.40;0.40;;;18.70;59.50;;;;;;4976552;28;20596;-76
2021/05/22 13:12:55;;;;;;;0.30;0.30;;;18.40;59.00;;;;;;4976205;28;20263;-76
2021/05/22 13:15:24;;;;;;;0.40;0.40;;;18.30;60.60;;;;;;4975506;28;20228;-76
2021/05/22 13:17:53;;;;;;;0.30;0.30;;;18.10;59.60;;;;;;4975822;28;20244;-76
2021/05/22 13:20:22;;;;;;;0.40;0.40;;;18.10;60.30;;;;;;4975660;28;20681;-76
2021/05/22 13:22:50;;;;;;;0.40;0.40;;;18.00;60.80;;;;;;4975967;28;20224;-76
2021/05/22 13:25:19;;;;;;;0.40;0.40;;;18.20;61.10;;;;;;4975556;28;20232;-76
2021/05/22 13:28:03;;;;;;;0.40;0.40;;;18.50;61.10;;;;;;4975029;28;20296;-74
2021/05/22 13:30:33;;;;;;;0.30;0.30;;;19.00;60.20;;;;;;4976147;28;20275;-76
2021/05/22 13:33:01;;;;;;;0.40;0.40;;;19.30;60.30;;;;;;4973371;28;20657;-76
2021/05/22 13:35:29;;;;;;;0.40;0.40;;;19.10;59.00;;;;;;4972936;28;20290;-76
2021/05/22 13:37:59;;;;;;;0.40;0.40;;;19.50;59.80;;;;;;4974857;28;20204;-76
2021/05/22 13:40:29;;;;;;;0.30;0.30;;;20.00;59.60;;;;;;4974147;28;20209;-76
2021/05/22 13:42:57;;;;;;;0.40;0.40;;;20.40;57.20;;;;;;4973597;28;20669;-76
2021/05/22 13:45:25;;;;;;;0.30;0.30;;;20.50;57.20;;;;;;4973370;28;20260;-75
2021/05/22 13:47:53;;;;;;;0.30;0.30;;;20.20;58.50;;;;;;4974399;28;20263;-76
2021/05/22 13:50:21;;;;;;;0.30;0.30;;;19.70;57.90;;;;;;4975780;28;20236;-77
2021/05/22 13:52:50;;;;;;;0.30;0.30;;;19.70;58.10;;;;;;4975486;28;20259;-76
2021/05/22 13:55:19;;;;;;;0.30;0.30;;;19.70;58.60;;;;;;4975639;28;20275;-76
2021/05/22 13:57:47;;;;;;;0.40;0.40;;;19.70;58.80;;;;;;4975271;28;20200;-77
2021/05/22 14:00:17;;;;;;;0.30;0.30;;;19.70;57.40;;;;;;4975457;28;20259;-76
2021/05/22 14:02:45;;;;;;;0.40;0.40;;;19.50;58.00;;;;;;4975149;28;20231;-75
2021/05/22 14:05:13;;;;;;;0.30;0.30;;;19.40;58.50;;;;;;4974733;28;20275;-76
2021/05/22 14:07:40;;;;;;;0.30;0.30;;;19.80;57.90;;;;;;4975210;28;20283;-76
2021/05/22 14:10:09;;;;;;;0.30;0.30;;;20.00;57.00;;;;;;4975107;28;20256;-76
2021/05/22 14:12:37;;;;;;;0.30;0.30;;;19.80;57.10;;;;;;4975470;28;20232;-76
2021/05/22 14:15:05;;;;;;;0.30;0.30;;;19.70;57.40;;;;;;4975168;28;20224;-76
2021/05/22 14:17:33;;;;;;;0.40;0.40;;;19.60;57.20;;;;;;4974883;28;20205;-76
2021/05/22 14:20:02;;;;;;;0.30;0.30;;;19.70;58.60;;;;;;4975228;28;20625;-76
2021/05/22 14:22:29;;;;;;;0.40;0.40;;;19.10;57.90;;;;;;4975222;28;20276;-75
2021/05/22 14:24:59;;;;;;;0.50;0.50;;;18.70;59.50;;;;;;4974732;28;20275;-76
2021/05/22 14:27:27;;;;;;;0.50;0.50;;;18.40;59.80;;;;;;4974963;28;20267;-76
2021/05/22 14:29:54;;;;;;;0.50;0.50;;;18.20;60.60;;;;;;4975361;28;20259;-76
2021/05/22 14:32:21;;;;;;;0.40;0.40;;;18.10;62.20;;;;;;4974681;28;20209;-76
2021/05/22 14:34:49;;;;;;;0.40;0.40;;;17.70;65.10;;;;;;4975092;28;20217;-76
2021/05/22 14:37:17;;;;;;;0.40;0.40;;;17.50;67.90;;;;;;4974615;28;20259;-75
2021/05/22 14:39:44;;;;;;;0.40;0.40;;;17.00;73.50;;;;;;4973964;28;20232;-75
2021/05/22 14:42:11;;;;;;;0.50;0.50;;;16.80;77.20;;;;;;4968330;28;20599;-76
2021/05/22 14:44:39;;;;;;;0.40;0.40;;;17.00;77.00;;;;;;4960326;28;20665;-76
2021/05/22 14:47:06;;;;;;;0.40;0.40;;;17.30;74.00;;;;;;4954997;29;20256;-76
2021/05/22 14:49:33;;;;;;;0.40;0.40;;;17.30;72.90;;;;;;4964756;28;20201;-76
2021/05/22 14:52:01;;;;;;;0.30;0.30;;;17.40;72.60;;;;;;4974195;28;20306;-76
2021/05/22 14:54:29;;;;;;;0.40;0.40;;;17.30;71.40;;;;;;4974479;28;20221;-76
2021/05/22 14:56:58;;;;;;;0.40;0.40;;;17.40;72.10;;;;;;4962735;28;20204;-75
2021/05/22 14:59:25;;;;;;;0.30;0.30;;;17.20;76.60;;;;;;4966669;28;20239;-75
2021/05/22 15:01:53;;;;;;;0.40;0.40;;;17.40;75.60;;;;;;4964719;28;20625;-74
2021/05/22 15:04:20;;;;;;;0.40;0.40;;;17.30;78.60;;;;;;4960282;28;20248;-74
2021/05/22 15:06:48;;;;;;;0.40;0.40;;;17.40;79.60;;;;;;4963145;28;20200;-75
2021/05/22 15:09:15;;;;;;;0.40;0.40;;;17.20;76.20;;;;;;4964456;28;20208;-75
2021/05/22 15:11:43;;;;;;;0.40;0.40;;;17.20;72.90;;;;;;4963184;28;20260;-75
2021/05/22 15:14:11;;;;;;;0.50;0.50;;;17.30;71.20;;;;;;4963098;28;20638;-74
2021/05/22 15:16:38;;;;;;;0.40;0.40;;;17.50;68.60;;;;;;4963268;28;20248;-75
2021/05/22 15:19:06;;;;;;;0.40;0.40;;;17.60;68.10;;;;;;4954144;29;20272;-75
2021/05/22 15:21:34;;;;;;;0.50;0.50;;;17.60;66.90;;;;;;4954707;29;20240;-75
2021/05/22 15:24:02;;;;;;;0.40;0.40;;;17.60;67.30;;;;;;4954240;28;20233;-75
2021/05/22 15:26:30;;;;;;;0.50;0.50;;;17.60;67.00;;;;;;4954034;29;20229;-75
2021/05/22 15:28:58;;;;;;;0.40;0.40;;;17.80;67.20;;;;;;4954158;29;20272;-75
2021/05/22 15:31:25;;;;;;;0.40;0.40;;;17.90;65.20;;;;;;4954073;28;20256;-75
2021/05/22 15:33:53;;;;;;;0.40;0.40;;;18.00;66.70;;;;;;4970522;28;20477;-75
2021/05/22 15:36:21;;;;;;;0.30;0.30;;;18.10;66.10;;;;;;4973397;28;20200;-75
2021/05/22 15:38:49;;;;;;;0.50;0.50;;;18.00;67.70;;;;;;4973077;28;20216;-75
2021/05/22 15:41:16;;;;;;;0.40;0.40;;;18.00;65.80;;;;;;4973822;28;20228;-77
2021/05/22 15:43:46;;;;;;;0.30;0.30;;;18.20;65.90;;;;;;4972415;28;20243;-76
2021/05/22 15:46:15;;;;;;;0.40;0.40;;;18.30;65.50;;;;;;4961655;28;20213;-76
2021/05/22 15:49:14;;;;;;;0.40;0.40;;;18.50;65.60;;;;;;4962295;28;20190;-77
2021/05/22 15:57:52;;;;;;;0.30;0.30;;;18.60;63.80;;;;;;4912830;29;20195;-76
2021/05/22 16:00:21;;;;;;;0.30;0.30;;;18.40;64.70;;;;;;4954378;28;20205;-75
2021/05/22 16:03:04;;;;;;;0.30;0.30;;;18.10;65.20;;;;;;4972912;28;20264;-76
2021/05/22 16:05:41;;;;;;;0.40;0.40;;;17.90;64.50;;;;;;4973045;28;20755;-76
2021/05/22 16:08:09;;;;;;;0.40;0.40;;;17.60;65.70;;;;;;4973185;28;20251;-76
2021/05/22 16:10:37;;;;;;;0.40;0.40;;;17.40;66.30;;;;;;4973241;28;20205;-76
2021/05/22 16:13:04;;;;;;;0.40;0.40;;;17.20;67.60;;;;;;4972857;28;20198;-76
2021/05/22 16:15:32;;;;;;;0.40;0.40;;;17.20;69.70;;;;;;4962701;28;20689;-77
2021/05/22 16:18:00;;;;;;;0.50;0.50;;;16.50;79.90;;;;;;4964818;28;20228;-77
2021/05/22 16:20:27;;;;;;;0.40;0.40;;;16.00;80.50;;;;;;4973738;28;20275;-76
2021/05/22 16:22:55;;;;;;;0.75;0.75;;;15.90;76.90;;;;;;4973123;28;20251;-76
2021/05/22 16:25:22;;;;;;;0.50;0.50;;;16.20;74.00;;;;;;4969402;28;20221;-75
2021/05/22 16:27:49;;;;;;;0.40;0.40;;;16.60;75.40;;;;;;4962658;28;20267;-76
2021/05/22 16:30:18;;;;;;;0.50;0.50;;;16.60;73.50;;;;;;4963826;28;20570;-76
2021/05/22 16:32:46;;;;;;;0.40;0.40;;;16.70;74.90;;;;;;4970537;28;20201;-75
2021/05/22 16:35:14;;;;;;;0.40;0.40;;;16.70;73.90;;;;;;4972422;28;20283;-76
2021/05/22 16:37:42;;;;;;;0.40;0.40;;;16.80;74.70;;;;;;4972754;28;20205;-75
2021/05/22 16:40:13;;;;;;;0.40;0.40;;;16.90;74.00;;;;;;4972434;28;20256;-75
2021/05/22 16:42:41;;;;;;;0.40;0.40;;;17.30;73.70;;;;;;5006383;23;20227;-77
2021/05/22 16:45:10;;;;;;;0.60;0.60;;;17.90;71.40;;;;;;4982328;28;20223;-77
2021/05/22 16:47:40;;;;;;;0.57;0.57;;;18.50;69.60;;;;;;4976529;28;20252;-77
2021/05/22 16:50:09;;;;;;;0.60;0.60;;;19.00;68.30;;;;;;4975319;28;20200;-77
2021/05/22 16:52:37;;;;;;;0.40;0.40;;;19.70;67.70;;;;;;4965312;28;20236;-78
2021/05/22 16:55:06;;;;;;;0.30;0.30;;;19.80;66.80;;;;;;4969874;28;20619;-77
2021/05/22 16:57:34;;;;;;;0.70;0.70;;;19.50;66.50;;;;;;4977863;28;20196;-78
2021/05/22 17:00:02;;;;;;;1.08;1.08;;;19.60;67.90;;;;;;4969910;28;20196;-77
2021/05/22 17:02:29;;;;;;;0.30;0.30;;;20.00;67.40;;;;;;4978024;28;20235;-77
2021/05/22 17:04:58;;;;;;;1.50;1.50;;;20.40;66.40;;;;;;4974453;28;20296;-76
2021/05/22 17:07:26;;;;;;;1.50;1.50;;;20.40;66.70;;;;;;4974876;28;20208;-81
2021/05/22 17:09:56;;;;;;;0.30;0.30;;;22.60;61.60;;;;;;4976526;28;20288;-73
2021/05/22 17:12:24;;;;;;;1.50;1.50;;;22.80;81.70;;;;;;4976146;28;20723;-78
2021/05/22 17:14:53;;;;;;;1.25;1.25;;;23.10;62.50;;;;;;4973346;28;20197;-75
2021/05/22 17:17:20;;;;;;;0.60;0.60;;;23.60;60.60;;;;;;4964744;28;20201;-76